sensor_id;sensor_type;location;lat;lon;timestamp;P1;durP1;ratioP1;P2;durP2;ratioP2
24557;SDS011;12726;49.148;8.582;2023-04-24T00:01:48;0.68;;;0.57;;
24557;SDS011;12726;49.148;8.582;2023-04-24T00:04:34;0.93;;;0.50;;
24557;SDS011;12726;49.148;8.582;2023-04-24T00:07:19;0.85;;;0.50;;
24557;SDS011;12726;49.148;8.582;2023-04-24T00:10:05;1.55;;;0.52;;
24557;SDS011;12726;49.148;8.582;2023-04-24T00:12:51;3.85;;;0.63;;
24557;SDS011;12726;49.148;8.582;2023-04-24T00:15:38;3.22;;;0.70;;
24557;SDS011;12726;49.148;8.582;2023-04-24T00:18:23;1.85;;;0.68;;
24557;SDS011;12726;49.148;8.582;2023-04-24T00:21:09;1.05;;;0.50;;
24557;SDS011;12726;49.148;8.582;2023-04-24T00:23:54;2.17;;;0.52;;
24557;SDS011;12726;49.148;8.582;2023-04-24T00:26:39;1.85;;;0.55;;
24557;SDS011;12726;49.148;8.582;2023-04-24T00:29:25;1.40;;;0.60;;
24557;SDS011;12726;49.148;8.582;2023-04-24T00:32:11;0.90;;;0.52;;
24557;SDS011;12726;49.148;8.582;2023-04-24T00:34:57;2.95;;;1.08;;
24557;SDS011;12726;49.148;8.582;2023-04-24T00:37:42;1.90;;;0.60;;
24557;SDS011;12726;49.148;8.582;2023-04-24T00:40:28;1.77;;;0.90;;
24557;SDS011;12726;49.148;8.582;2023-04-24T00:43:13;0.95;;;0.50;;
24557;SDS011;12726;49.148;8.582;2023-04-24T00:45:59;2.92;;;0.68;;
24557;SDS011;12726;49.148;8.582;2023-04-24T00:48:46;2.40;;;0.80;;
24557;SDS011;12726;49.148;8.582;2023-04-24T00:51:32;0.80;;;0.52;;
24557;SDS011;12726;49.148;8.582;2023-04-24T00:54:18;1.00;;;0.50;;
24557;SDS011;12726;49.148;8.582;2023-04-24T00:57:03;1.67;;;0.57;;
24557;SDS011;12726;49.148;8.582;2023-04-24T00:59:49;0.32;;;0.32;;
24557;SDS011;12726;49.148;8.582;2023-04-24T01:02:35;1.45;;;0.50;;
24557;SDS011;12726;49.148;8.582;2023-04-24T01:05:25;3.50;;;1.52;;
24557;SDS011;12726;49.148;8.582;2023-04-24T01:08:10;1.58;;;0.55;;
24557;SDS011;12726;49.148;8.582;2023-04-24T01:10:56;2.95;;;0.60;;
24557;SDS011;12726;49.148;8.582;2023-04-24T01:13:42;2.40;;;0.50;;
24557;SDS011;12726;49.148;8.582;2023-04-24T01:16:28;2.05;;;0.95;;
24557;SDS011;12726;49.148;8.582;2023-04-24T01:19:13;1.73;;;0.50;;
24557;SDS011;12726;49.148;8.582;2023-04-24T01:22:03;2.05;;;0.60;;
24557;SDS011;12726;49.148;8.582;2023-04-24T01:24:55;2.28;;;0.60;;
24557;SDS011;12726;49.148;8.582;2023-04-24T01:27:41;0.35;;;0.35;;
24557;SDS011;12726;49.148;8.582;2023-04-24T01:30:26;2.15;;;0.85;;
24557;SDS011;12726;49.148;8.582;2023-04-24T01:33:12;2.20;;;0.75;;
24557;SDS011;12726;49.148;8.582;2023-04-24T01:35:58;2.97;;;0.73;;
24557;SDS011;12726;49.148;8.582;2023-04-24T01:38:44;3.38;;;0.70;;
24557;SDS011;12726;49.148;8.582;2023-04-24T01:41:30;1.13;;;0.50;;
24557;SDS011;12726;49.148;8.582;2023-04-24T01:44:15;1.15;;;0.60;;
24557;SDS011;12726;49.148;8.582;2023-04-24T01:47:02;2.05;;;0.63;;
24557;SDS011;12726;49.148;8.582;2023-04-24T01:49:47;2.75;;;0.63;;
24557;SDS011;12726;49.148;8.582;2023-04-24T01:52:33;0.98;;;0.65;;
24557;SDS011;12726;49.148;8.582;2023-04-24T01:55:21;1.65;;;0.60;;
24557;SDS011;12726;49.148;8.582;2023-04-24T01:58:06;2.03;;;0.60;;
24557;SDS011;12726;49.148;8.582;2023-04-24T02:00:51;2.10;;;0.70;;
24557;SDS011;12726;49.148;8.582;2023-04-24T02:03:36;3.20;;;0.60;;
24557;SDS011;12726;49.148;8.582;2023-04-24T02:06:22;1.83;;;0.52;;
24557;SDS011;12726;49.148;8.582;2023-04-24T02:09:07;0.98;;;0.52;;
24557;SDS011;12726;49.148;8.582;2023-04-24T02:11:54;0.95;;;0.52;;
24557;SDS011;12726;49.148;8.582;2023-04-24T02:14:40;1.20;;;0.50;;
24557;SDS011;12726;49.148;8.582;2023-04-24T02:17:26;1.98;;;0.60;;
24557;SDS011;12726;49.148;8.582;2023-04-24T02:20:11;1.17;;;0.45;;
24557;SDS011;12726;49.148;8.582;2023-04-24T02:22:57;0.73;;;0.57;;
24557;SDS011;12726;49.148;8.582;2023-04-24T02:25:42;2.72;;;0.98;;
24557;SDS011;12726;49.148;8.582;2023-04-24T02:28:28;1.05;;;0.60;;
24557;SDS011;12726;49.148;8.582;2023-04-24T02:31:14;3.13;;;0.70;;
24557;SDS011;12726;49.148;8.582;2023-04-24T02:33:59;1.27;;;0.50;;
24557;SDS011;12726;49.148;8.582;2023-04-24T02:36:45;3.00;;;0.70;;
24557;SDS011;12726;49.148;8.582;2023-04-24T02:39:30;2.40;;;0.68;;
24557;SDS011;12726;49.148;8.582;2023-04-24T02:42:15;2.83;;;0.60;;
24557;SDS011;12726;49.148;8.582;2023-04-24T02:45:02;1.02;;;0.60;;
24557;SDS011;12726;49.148;8.582;2023-04-24T02:47:49;2.40;;;0.70;;
24557;SDS011;12726;49.148;8.582;2023-04-24T02:50:35;2.10;;;0.60;;
24557;SDS011;12726;49.148;8.582;2023-04-24T02:53:20;1.48;;;0.60;;
24557;SDS011;12726;49.148;8.582;2023-04-24T02:56:06;1.83;;;0.40;;
24557;SDS011;12726;49.148;8.582;2023-04-24T02:58:51;4.00;;;0.82;;
24557;SDS011;12726;49.148;8.582;2023-04-24T03:01:38;2.03;;;0.55;;
24557;SDS011;12726;49.148;8.582;2023-04-24T03:04:24;1.90;;;0.57;;
24557;SDS011;12726;49.148;8.582;2023-04-24T03:07:09;2.40;;;0.75;;
24557;SDS011;12726;49.148;8.582;2023-04-24T03:09:55;2.95;;;0.70;;
24557;SDS011;12726;49.148;8.582;2023-04-24T03:12:41;0.95;;;0.50;;
24557;SDS011;12726;49.148;8.582;2023-04-24T03:15:26;1.42;;;0.88;;
24557;SDS011;12726;49.148;8.582;2023-04-24T03:18:13;4.88;;;0.95;;
24557;SDS011;12726;49.148;8.582;2023-04-24T03:20:58;3.03;;;0.77;;
24557;SDS011;12726;49.148;8.582;2023-04-24T03:23:44;1.17;;;0.70;;
24557;SDS011;12726;49.148;8.582;2023-04-24T03:26:29;2.88;;;1.30;;
24557;SDS011;12726;49.148;8.582;2023-04-24T03:29:15;3.03;;;1.20;;
24557;SDS011;12726;49.148;8.582;2023-04-24T03:32:00;2.72;;;1.35;;
24557;SDS011;12726;49.148;8.582;2023-04-24T03:34:47;2.33;;;1.30;;
24557;SDS011;12726;49.148;8.582;2023-04-24T03:37:32;2.25;;;1.27;;
24557;SDS011;12726;49.148;8.582;2023-04-24T03:40:18;2.08;;;1.45;;
24557;SDS011;12726;49.148;8.582;2023-04-24T03:43:03;2.35;;;1.42;;
24557;SDS011;12726;49.148;8.582;2023-04-24T03:45:48;2.30;;;1.30;;
24557;SDS011;12726;49.148;8.582;2023-04-24T03:48:33;1.73;;;1.25;;
24557;SDS011;12726;49.148;8.582;2023-04-24T03:51:20;1.63;;;1.40;;
24557;SDS011;12726;49.148;8.582;2023-04-24T03:54:06;2.72;;;1.73;;
24557;SDS011;12726;49.148;8.582;2023-04-24T03:56:51;2.72;;;2.03;;
24557;SDS011;12726;49.148;8.582;2023-04-24T03:59:37;5.00;;;1.70;;
24557;SDS011;12726;49.148;8.582;2023-04-24T04:02:22;2.90;;;1.40;;
24557;SDS011;12726;49.148;8.582;2023-04-24T04:05:07;2.42;;;1.70;;
24557;SDS011;12726;49.148;8.582;2023-04-24T04:07:54;4.00;;;2.03;;
24557;SDS011;12726;49.148;8.582;2023-04-24T04:10:39;3.20;;;1.98;;
24557;SDS011;12726;49.148;8.582;2023-04-24T04:13:25;4.38;;;2.25;;
24557;SDS011;12726;49.148;8.582;2023-04-24T04:16:10;2.85;;;2.10;;
24557;SDS011;12726;49.148;8.582;2023-04-24T04:18:56;2.33;;;1.75;;
24557;SDS011;12726;49.148;8.582;2023-04-24T04:21:42;4.38;;;1.77;;
24557;SDS011;12726;49.148;8.582;2023-04-24T04:24:30;2.90;;;1.90;;
24557;SDS011;12726;49.148;8.582;2023-04-24T04:27:15;4.00;;;2.28;;
24557;SDS011;12726;49.148;8.582;2023-04-24T04:30:02;3.45;;;1.85;;
24557;SDS011;12726;49.148;8.582;2023-04-24T04:32:49;4.13;;;2.25;;
24557;SDS011;12726;49.148;8.582;2023-04-24T04:35:34;4.32;;;2.05;;
24557;SDS011;12726;49.148;8.582;2023-04-24T04:38:20;3.15;;;2.22;;
24557;SDS011;12726;49.148;8.582;2023-04-24T04:41:06;2.83;;;2.30;;
24557;SDS011;12726;49.148;8.582;2023-04-24T04:43:52;2.80;;;2.08;;
24557;SDS011;12726;49.148;8.582;2023-04-24T04:46:37;3.67;;;2.20;;
24557;SDS011;12726;49.148;8.582;2023-04-24T04:49:23;5.68;;;2.10;;
24557;SDS011;12726;49.148;8.582;2023-04-24T04:52:08;2.58;;;1.90;;
24557;SDS011;12726;49.148;8.582;2023-04-24T04:54:54;2.47;;;2.10;;
24557;SDS011;12726;49.148;8.582;2023-04-24T04:57:40;4.53;;;1.92;;
24557;SDS011;12726;49.148;8.582;2023-04-24T05:00:25;3.80;;;2.05;;
24557;SDS011;12726;49.148;8.582;2023-04-24T05:03:12;3.17;;;1.58;;
24557;SDS011;12726;49.148;8.582;2023-04-24T05:05:57;3.95;;;1.90;;
24557;SDS011;12726;49.148;8.582;2023-04-24T05:08:43;3.80;;;2.30;;
24557;SDS011;12726;49.148;8.582;2023-04-24T05:11:28;3.60;;;2.13;;
24557;SDS011;12726;49.148;8.582;2023-04-24T05:14:15;2.50;;;2.10;;
24557;SDS011;12726;49.148;8.582;2023-04-24T05:17:01;4.07;;;2.28;;
24557;SDS011;12726;49.148;8.582;2023-04-24T05:19:47;3.90;;;2.25;;
24557;SDS011;12726;49.148;8.582;2023-04-24T05:22:32;2.40;;;1.70;;
24557;SDS011;12726;49.148;8.582;2023-04-24T05:25:18;3.65;;;2.10;;
24557;SDS011;12726;49.148;8.582;2023-04-24T05:28:03;5.75;;;2.30;;
24557;SDS011;12726;49.148;8.582;2023-04-24T05:30:49;2.35;;;1.92;;
24557;SDS011;12726;49.148;8.582;2023-04-24T05:33:35;2.78;;;2.15;;
24557;SDS011;12726;49.148;8.582;2023-04-24T05:36:20;2.13;;;1.85;;
24557;SDS011;12726;49.148;8.582;2023-04-24T05:39:05;2.40;;;2.08;;
24557;SDS011;12726;49.148;8.582;2023-04-24T05:41:51;2.53;;;2.00;;
24557;SDS011;12726;49.148;8.582;2023-04-24T05:44:37;3.40;;;2.20;;
24557;SDS011;12726;49.148;8.582;2023-04-24T05:47:23;3.10;;;2.17;;
24557;SDS011;12726;49.148;8.582;2023-04-24T05:50:10;3.47;;;2.15;;
24557;SDS011;12726;49.148;8.582;2023-04-24T05:52:56;4.03;;;2.25;;
24557;SDS011;12726;49.148;8.582;2023-04-24T05:55:41;3.25;;;2.63;;
24557;SDS011;12726;49.148;8.582;2023-04-24T05:58:27;2.85;;;2.45;;
24557;SDS011;12726;49.148;8.582;2023-04-24T06:01:12;3.22;;;2.25;;
24557;SDS011;12726;49.148;8.582;2023-04-24T06:03:59;2.92;;;2.45;;
24557;SDS011;12726;49.148;8.582;2023-04-24T06:06:44;2.65;;;2.08;;
24557;SDS011;12726;49.148;8.582;2023-04-24T06:09:29;2.40;;;2.00;;
24557;SDS011;12726;49.148;8.582;2023-04-24T06:12:15;2.42;;;2.22;;
24557;SDS011;12726;49.148;8.582;2023-04-24T06:15:00;2.17;;;1.98;;
24557;SDS011;12726;49.148;8.582;2023-04-24T06:17:46;5.00;;;2.03;;
24557;SDS011;12726;49.148;8.582;2023-04-24T06:20:33;2.92;;;1.88;;
24557;SDS011;12726;49.148;8.582;2023-04-24T06:23:19;1.92;;;1.70;;
24557;SDS011;12726;49.148;8.582;2023-04-24T06:26:04;2.35;;;1.90;;
24557;SDS011;12726;49.148;8.582;2023-04-24T06:28:50;3.33;;;1.70;;
24557;SDS011;12726;49.148;8.582;2023-04-24T06:31:35;4.28;;;1.70;;
24557;SDS011;12726;49.148;8.582;2023-04-24T06:34:21;4.47;;;1.30;;
24557;SDS011;12726;49.148;8.582;2023-04-24T06:37:08;2.75;;;1.35;;
24557;SDS011;12726;49.148;8.582;2023-04-24T06:39:53;1.85;;;1.67;;
24557;SDS011;12726;49.148;8.582;2023-04-24T06:42:38;3.40;;;1.58;;
24557;SDS011;12726;49.148;8.582;2023-04-24T06:45:23;3.17;;;1.42;;
24557;SDS011;12726;49.148;8.582;2023-04-24T06:48:09;3.38;;;1.50;;
24557;SDS011;12726;49.148;8.582;2023-04-24T06:50:55;2.30;;;1.77;;
24557;SDS011;12726;49.148;8.582;2023-04-24T06:53:41;3.13;;;1.77;;
24557;SDS011;12726;49.148;8.582;2023-04-24T06:56:27;4.93;;;1.67;;
24557;SDS011;12726;49.148;8.582;2023-04-24T06:59:13;2.05;;;1.40;;
24557;SDS011;12726;49.148;8.582;2023-04-24T07:01:58;3.05;;;1.48;;
24557;SDS011;12726;49.148;8.582;2023-04-24T07:04:43;1.65;;;1.20;;
24557;SDS011;12726;49.148;8.582;2023-04-24T07:07:29;1.80;;;1.20;;
24557;SDS011;12726;49.148;8.582;2023-04-24T07:10:16;1.70;;;1.38;;
24557;SDS011;12726;49.148;8.582;2023-04-24T07:13:01;3.53;;;1.25;;
24557;SDS011;12726;49.148;8.582;2023-04-24T07:15:47;1.65;;;1.15;;
24557;SDS011;12726;49.148;8.582;2023-04-24T07:18:34;3.70;;;1.45;;
24557;SDS011;12726;49.148;8.582;2023-04-24T07:21:20;1.52;;;1.40;;
24557;SDS011;12726;49.148;8.582;2023-04-24T07:24:05;2.40;;;1.20;;
24557;SDS011;12726;49.148;8.582;2023-04-24T07:26:54;1.50;;;1.23;;
24557;SDS011;12726;49.148;8.582;2023-04-24T07:29:40;1.90;;;1.42;;
24557;SDS011;12726;49.148;8.582;2023-04-24T07:32:25;3.40;;;1.48;;
24557;SDS011;12726;49.148;8.582;2023-04-24T07:35:11;1.40;;;1.05;;
24557;SDS011;12726;49.148;8.582;2023-04-24T07:37:56;1.58;;;1.08;;
24557;SDS011;12726;49.148;8.582;2023-04-24T07:40:42;1.77;;;1.30;;
24557;SDS011;12726;49.148;8.582;2023-04-24T07:43:28;2.10;;;1.17;;
24557;SDS011;12726;49.148;8.582;2023-04-24T07:46:14;2.63;;;1.30;;
24557;SDS011;12726;49.148;8.582;2023-04-24T07:48:59;1.23;;;1.02;;
24557;SDS011;12726;49.148;8.582;2023-04-24T07:51:45;2.58;;;1.10;;
24557;SDS011;12726;49.148;8.582;2023-04-24T07:54:30;1.17;;;1.00;;
24557;SDS011;12726;49.148;8.582;2023-04-24T07:57:15;3.75;;;1.08;;
24557;SDS011;12726;49.148;8.582;2023-04-24T08:00:03;2.33;;;1.08;;
24557;SDS011;12726;49.148;8.582;2023-04-24T08:02:50;1.90;;;1.27;;
24557;SDS011;12726;49.148;8.582;2023-04-24T08:05:35;4.05;;;1.40;;
24557;SDS011;12726;49.148;8.582;2023-04-24T08:08:21;3.00;;;1.38;;
24557;SDS011;12726;49.148;8.582;2023-04-24T08:11:07;1.80;;;0.90;;
24557;SDS011;12726;49.148;8.582;2023-04-24T08:13:53;1.52;;;1.13;;
24557;SDS011;12726;49.148;8.582;2023-04-24T08:16:39;1.35;;;0.80;;
24557;SDS011;12726;49.148;8.582;2023-04-24T08:19:25;1.60;;;0.90;;
24557;SDS011;12726;49.148;8.582;2023-04-24T08:22:11;3.50;;;1.20;;
24557;SDS011;12726;49.148;8.582;2023-04-24T08:24:56;1.77;;;0.80;;
24557;SDS011;12726;49.148;8.582;2023-04-24T08:27:41;2.47;;;0.90;;
24557;SDS011;12726;49.148;8.582;2023-04-24T08:30:27;1.05;;;0.82;;
24557;SDS011;12726;49.148;8.582;2023-04-24T08:33:14;1.75;;;0.80;;
24557;SDS011;12726;49.148;8.582;2023-04-24T08:35:59;1.48;;;0.88;;
24557;SDS011;12726;49.148;8.582;2023-04-24T08:38:44;1.35;;;0.93;;
24557;SDS011;12726;49.148;8.582;2023-04-24T08:41:30;1.63;;;1.17;;
24557;SDS011;12726;49.148;8.582;2023-04-24T08:44:16;1.08;;;0.90;;
24557;SDS011;12726;49.148;8.582;2023-04-24T08:47:02;2.90;;;0.93;;
24557;SDS011;12726;49.148;8.582;2023-04-24T08:49:49;1.63;;;0.82;;
24557;SDS011;12726;49.148;8.582;2023-04-24T08:52:35;2.10;;;0.93;;
24557;SDS011;12726;49.148;8.582;2023-04-24T08:55:20;1.67;;;0.93;;
24557;SDS011;12726;49.148;8.582;2023-04-24T08:58:06;3.35;;;0.90;;
24557;SDS011;12726;49.148;8.582;2023-04-24T09:00:52;0.95;;;0.88;;
24557;SDS011;12726;49.148;8.582;2023-04-24T09:03:39;1.52;;;0.90;;
24557;SDS011;12726;49.148;8.582;2023-04-24T09:06:26;1.40;;;1.05;;
24557;SDS011;12726;49.148;8.582;2023-04-24T09:09:12;3.10;;;0.80;;
24557;SDS011;12726;49.148;8.582;2023-04-24T09:11:58;2.80;;;1.20;;
24557;SDS011;12726;49.148;8.582;2023-04-24T09:14:44;1.60;;;1.05;;
24557;SDS011;12726;49.148;8.582;2023-04-24T09:17:30;1.60;;;1.00;;
24557;SDS011;12726;49.148;8.582;2023-04-24T09:20:15;1.45;;;0.90;;
24557;SDS011;12726;49.148;8.582;2023-04-24T09:23:02;2.58;;;1.00;;
24557;SDS011;12726;49.148;8.582;2023-04-24T09:25:48;1.30;;;1.00;;
24557;SDS011;12726;49.148;8.582;2023-04-24T09:28:39;1.85;;;1.08;;
24557;SDS011;12726;49.148;8.582;2023-04-24T09:31:26;2.13;;;1.85;;
24557;SDS011;12726;49.148;8.582;2023-04-24T09:34:13;2.60;;;1.50;;
24557;SDS011;12726;49.148;8.582;2023-04-24T09:36:58;2.65;;;1.58;;
24557;SDS011;12726;49.148;8.582;2023-04-24T09:39:45;1.88;;;1.30;;
24557;SDS011;12726;49.148;8.582;2023-04-24T09:42:57;8.27;;;2.05;;
24557;SDS011;12726;49.148;8.582;2023-04-24T09:45:46;2.58;;;1.40;;
24557;SDS011;12726;49.148;8.582;2023-04-24T09:48:31;2.42;;;1.83;;
24557;SDS011;12726;49.148;8.582;2023-04-24T09:51:17;2.55;;;1.60;;
24557;SDS011;12726;49.148;8.582;2023-04-24T09:54:19;3.33;;;1.70;;
24557;SDS011;12726;49.148;8.582;2023-04-24T09:57:08;3.42;;;1.83;;
24557;SDS011;12726;49.148;8.582;2023-04-24T09:59:53;1.90;;;1.42;;
24557;SDS011;12726;49.148;8.582;2023-04-24T10:02:39;3.22;;;1.70;;
24557;SDS011;12726;49.148;8.582;2023-04-24T10:05:26;4.40;;;2.42;;
24557;SDS011;12726;49.148;8.582;2023-04-24T10:08:13;3.60;;;1.70;;
24557;SDS011;12726;49.148;8.582;2023-04-24T10:10:59;3.70;;;1.90;;
24557;SDS011;12726;49.148;8.582;2023-04-24T10:13:45;3.47;;;2.03;;
24557;SDS011;12726;49.148;8.582;2023-04-24T10:16:31;4.55;;;2.00;;
24557;SDS011;12726;49.148;8.582;2023-04-24T10:19:17;1.80;;;1.70;;
24557;SDS011;12726;49.148;8.582;2023-04-24T10:22:03;2.35;;;2.10;;
24557;SDS011;12726;49.148;8.582;2023-04-24T10:24:49;3.22;;;1.75;;
24557;SDS011;12726;49.148;8.582;2023-04-24T10:27:36;2.25;;;1.73;;
24557;SDS011;12726;49.148;8.582;2023-04-24T10:30:24;4.28;;;1.90;;
24557;SDS011;12726;49.148;8.582;2023-04-24T10:33:09;2.97;;;1.90;;
24557;SDS011;12726;49.148;8.582;2023-04-24T10:35:56;3.70;;;2.33;;
24557;SDS011;12726;49.148;8.582;2023-04-24T10:38:42;3.30;;;2.33;;
24557;SDS011;12726;49.148;8.582;2023-04-24T10:41:32;2.95;;;2.58;;
24557;SDS011;12726;49.148;8.582;2023-04-24T10:44:18;4.13;;;2.58;;
24557;SDS011;12726;49.148;8.582;2023-04-24T10:47:13;3.78;;;2.20;;
24557;SDS011;12726;49.148;8.582;2023-04-24T10:49:59;5.00;;;2.60;;
24557;SDS011;12726;49.148;8.582;2023-04-24T10:52:45;3.75;;;2.38;;
24557;SDS011;12726;49.148;8.582;2023-04-24T10:55:40;7.00;;;2.28;;
24557;SDS011;12726;49.148;8.582;2023-04-24T10:58:35;2.97;;;2.42;;
24557;SDS011;12726;49.148;8.582;2023-04-24T11:01:24;3.03;;;2.60;;
24557;SDS011;12726;49.148;8.582;2023-04-24T11:04:12;5.63;;;2.88;;
24557;SDS011;12726;49.148;8.582;2023-04-24T11:06:57;4.82;;;3.33;;
24557;SDS011;12726;49.148;8.582;2023-04-24T11:09:43;6.47;;;2.90;;
24557;SDS011;12726;49.148;8.582;2023-04-24T11:12:29;5.00;;;2.45;;
24557;SDS011;12726;49.148;8.582;2023-04-24T11:15:14;5.07;;;2.22;;
24557;SDS011;12726;49.148;8.582;2023-04-24T11:18:03;3.75;;;2.50;;
24557;SDS011;12726;49.148;8.582;2023-04-24T11:20:50;3.08;;;2.50;;
24557;SDS011;12726;49.148;8.582;2023-04-24T11:23:39;4.85;;;2.40;;
24557;SDS011;12726;49.148;8.582;2023-04-24T11:26:25;3.83;;;2.22;;
24557;SDS011;12726;49.148;8.582;2023-04-24T11:29:15;2.55;;;2.10;;
24557;SDS011;12726;49.148;8.582;2023-04-24T11:32:09;2.60;;;2.05;;
24557;SDS011;12726;49.148;8.582;2023-04-24T11:35:04;3.97;;;2.57;;
24557;SDS011;12726;49.148;8.582;2023-04-24T11:37:52;3.60;;;2.28;;
24557;SDS011;12726;49.148;8.582;2023-04-24T11:40:38;3.55;;;2.33;;
24557;SDS011;12726;49.148;8.582;2023-04-24T11:43:24;3.78;;;2.40;;
24557;SDS011;12726;49.148;8.582;2023-04-24T11:46:09;4.65;;;2.58;;
24557;SDS011;12726;49.148;8.582;2023-04-24T11:48:55;5.63;;;2.60;;
24557;SDS011;12726;49.148;8.582;2023-04-24T11:51:41;4.60;;;2.60;;
24557;SDS011;12726;49.148;8.582;2023-04-24T11:54:28;4.60;;;2.83;;
24557;SDS011;12726;49.148;8.582;2023-04-24T11:57:13;2.80;;;2.13;;
24557;SDS011;12726;49.148;8.582;2023-04-24T11:59:58;3.28;;;2.35;;
24557;SDS011;12726;49.148;8.582;2023-04-24T12:02:44;2.60;;;2.22;;
24557;SDS011;12726;49.148;8.582;2023-04-24T12:05:29;5.85;;;2.05;;
24557;SDS011;12726;49.148;8.582;2023-04-24T12:08:26;6.20;;;2.20;;
24557;SDS011;12726;49.148;8.582;2023-04-24T12:11:14;3.42;;;2.25;;
24557;SDS011;12726;49.148;8.582;2023-04-24T12:14:10;4.22;;;2.50;;
24557;SDS011;12726;49.148;8.582;2023-04-24T12:16:56;5.18;;;2.13;;
24557;SDS011;12726;49.148;8.582;2023-04-24T12:19:45;3.05;;;2.40;;
24557;SDS011;12726;49.148;8.582;2023-04-24T12:22:44;3.75;;;2.17;;
24557;SDS011;12726;49.148;8.582;2023-04-24T12:25:31;3.20;;;2.22;;
24557;SDS011;12726;49.148;8.582;2023-04-24T12:28:19;3.75;;;2.10;;
24557;SDS011;12726;49.148;8.582;2023-04-24T12:31:05;3.75;;;2.10;;
24557;SDS011;12726;49.148;8.582;2023-04-24T12:33:51;3.42;;;2.30;;
24557;SDS011;12726;49.148;8.582;2023-04-24T12:36:37;4.22;;;2.05;;
24557;SDS011;12726;49.148;8.582;2023-04-24T12:39:22;3.58;;;2.30;;
24557;SDS011;12726;49.148;8.582;2023-04-24T12:42:11;4.00;;;2.30;;
24557;SDS011;12726;49.148;8.582;2023-04-24T12:44:58;4.25;;;3.08;;
24557;SDS011;12726;49.148;8.582;2023-04-24T12:47:46;4.13;;;1.77;;
24557;SDS011;12726;49.148;8.582;2023-04-24T12:50:31;3.63;;;2.17;;
24557;SDS011;12726;49.148;8.582;2023-04-24T12:53:16;2.90;;;2.00;;
24557;SDS011;12726;49.148;8.582;2023-04-24T12:56:02;4.07;;;1.90;;
24557;SDS011;12726;49.148;8.582;2023-04-24T12:58:47;3.78;;;2.25;;
24557;SDS011;12726;49.148;8.582;2023-04-24T13:01:34;2.42;;;2.03;;
24557;SDS011;12726;49.148;8.582;2023-04-24T13:04:19;3.83;;;2.50;;
24557;SDS011;12726;49.148;8.582;2023-04-24T13:07:05;4.85;;;2.10;;
24557;SDS011;12726;49.148;8.582;2023-04-24T13:09:51;2.35;;;2.15;;
24557;SDS011;12726;49.148;8.582;2023-04-24T13:12:37;4.63;;;2.15;;
24557;SDS011;12726;49.148;8.582;2023-04-24T13:15:22;3.85;;;2.60;;
24557;SDS011;12726;49.148;8.582;2023-04-24T13:18:09;6.15;;;2.47;;
24557;SDS011;12726;49.148;8.582;2023-04-24T13:20:55;2.83;;;2.20;;
24557;SDS011;12726;49.148;8.582;2023-04-24T13:23:40;3.35;;;2.00;;
24557;SDS011;12726;49.148;8.582;2023-04-24T13:26:26;3.92;;;2.55;;
24557;SDS011;12726;49.148;8.582;2023-04-24T13:29:11;4.72;;;2.30;;
24557;SDS011;12726;49.148;8.582;2023-04-24T13:31:56;4.57;;;2.38;;
24557;SDS011;12726;49.148;8.582;2023-04-24T13:34:43;5.20;;;2.17;;
24557;SDS011;12726;49.148;8.582;2023-04-24T13:37:29;2.63;;;2.05;;
24557;SDS011;12726;49.148;8.582;2023-04-24T13:40:14;3.63;;;2.28;;
24557;SDS011;12726;49.148;8.582;2023-04-24T13:42:59;3.72;;;1.90;;
24557;SDS011;12726;49.148;8.582;2023-04-24T13:45:45;3.13;;;1.80;;
24557;SDS011;12726;49.148;8.582;2023-04-24T13:48:31;2.40;;;1.48;;
24557;SDS011;12726;49.148;8.582;2023-04-24T13:51:17;2.75;;;1.58;;
24557;SDS011;12726;49.148;8.582;2023-04-24T13:54:03;2.78;;;1.80;;
24557;SDS011;12726;49.148;8.582;2023-04-24T13:56:48;3.47;;;1.38;;
24557;SDS011;12726;49.148;8.582;2023-04-24T13:59:34;2.38;;;1.65;;
24557;SDS011;12726;49.148;8.582;2023-04-24T14:02:19;4.60;;;1.98;;
24557;SDS011;12726;49.148;8.582;2023-04-24T14:05:05;2.75;;;1.67;;
24557;SDS011;12726;49.148;8.582;2023-04-24T14:07:52;3.40;;;1.90;;
24557;SDS011;12726;49.148;8.582;2023-04-24T14:10:37;2.95;;;1.90;;
24557;SDS011;12726;49.148;8.582;2023-04-24T14:13:23;4.05;;;2.10;;
24557;SDS011;12726;49.148;8.582;2023-04-24T14:16:08;2.67;;;2.13;;
24557;SDS011;12726;49.148;8.582;2023-04-24T14:18:54;3.40;;;2.00;;
24557;SDS011;12726;49.148;8.582;2023-04-24T14:21:39;3.65;;;2.00;;
24557;SDS011;12726;49.148;8.582;2023-04-24T14:24:26;3.22;;;2.00;;
24557;SDS011;12726;49.148;8.582;2023-04-24T14:27:11;2.70;;;1.85;;
24557;SDS011;12726;49.148;8.582;2023-04-24T14:29:57;4.65;;;2.00;;
24557;SDS011;12726;49.148;8.582;2023-04-24T14:32:42;2.22;;;1.80;;
24557;SDS011;12726;49.148;8.582;2023-04-24T14:35:28;2.88;;;2.03;;
24557;SDS011;12726;49.148;8.582;2023-04-24T14:38:15;3.00;;;2.00;;
24557;SDS011;12726;49.148;8.582;2023-04-24T14:41:01;2.28;;;2.00;;
24557;SDS011;12726;49.148;8.582;2023-04-24T14:43:52;3.70;;;1.80;;
24557;SDS011;12726;49.148;8.582;2023-04-24T14:46:38;2.72;;;2.05;;
24557;SDS011;12726;49.148;8.582;2023-04-24T14:49:23;2.63;;;2.08;;
24557;SDS011;12726;49.148;8.582;2023-04-24T14:52:09;2.97;;;1.75;;
24557;SDS011;12726;49.148;8.582;2023-04-24T14:54:54;3.30;;;2.20;;
24557;SDS011;12726;49.148;8.582;2023-04-24T14:57:41;4.60;;;2.80;;
24557;SDS011;12726;49.148;8.582;2023-04-24T15:00:27;3.10;;;2.28;;
24557;SDS011;12726;49.148;8.582;2023-04-24T15:03:13;2.10;;;1.90;;
24557;SDS011;12726;49.148;8.582;2023-04-24T15:05:58;4.45;;;2.38;;
24557;SDS011;12726;49.148;8.582;2023-04-24T15:08:44;2.97;;;2.05;;
24557;SDS011;12726;49.148;8.582;2023-04-24T15:11:29;6.95;;;2.22;;
24557;SDS011;12726;49.148;8.582;2023-04-24T15:14:16;3.95;;;2.58;;
24557;SDS011;12726;49.148;8.582;2023-04-24T15:17:02;3.03;;;2.13;;
24557;SDS011;12726;49.148;8.582;2023-04-24T15:19:48;3.63;;;2.17;;
24557;SDS011;12726;49.148;8.582;2023-04-24T15:22:33;4.00;;;2.30;;
24557;SDS011;12726;49.148;8.582;2023-04-24T15:25:19;3.08;;;2.10;;
24557;SDS011;12726;49.148;8.582;2023-04-24T15:28:04;3.80;;;2.22;;
24557;SDS011;12726;49.148;8.582;2023-04-24T15:30:51;4.38;;;2.22;;
24557;SDS011;12726;49.148;8.582;2023-04-24T15:33:36;3.20;;;2.40;;
24557;SDS011;12726;49.148;8.582;2023-04-24T15:36:21;4.75;;;2.15;;
24557;SDS011;12726;49.148;8.582;2023-04-24T15:39:07;4.68;;;1.90;;
24557;SDS011;12726;49.148;8.582;2023-04-24T15:41:53;2.58;;;2.25;;
24557;SDS011;12726;49.148;8.582;2023-04-24T15:44:39;5.30;;;2.30;;
24557;SDS011;12726;49.148;8.582;2023-04-24T15:47:26;2.78;;;2.15;;
24557;SDS011;12726;49.148;8.582;2023-04-24T15:50:11;3.40;;;1.90;;
24557;SDS011;12726;49.148;8.582;2023-04-24T15:52:59;2.72;;;2.10;;
24557;SDS011;12726;49.148;8.582;2023-04-24T15:55:45;2.65;;;2.08;;
24557;SDS011;12726;49.148;8.582;2023-04-24T15:58:30;4.70;;;2.88;;
24557;SDS011;12726;49.148;8.582;2023-04-24T16:01:16;5.60;;;2.60;;
24557;SDS011;12726;49.148;8.582;2023-04-24T16:04:02;5.53;;;3.10;;
24557;SDS011;12726;49.148;8.582;2023-04-24T16:06:48;6.68;;;2.85;;
24557;SDS011;12726;49.148;8.582;2023-04-24T16:09:33;5.97;;;4.00;;
24557;SDS011;12726;49.148;8.582;2023-04-24T16:12:18;5.68;;;3.33;;
24557;SDS011;12726;49.148;8.582;2023-04-24T16:15:04;4.50;;;2.83;;
24557;SDS011;12726;49.148;8.582;2023-04-24T16:17:50;3.28;;;2.70;;
24557;SDS011;12726;49.148;8.582;2023-04-24T16:20:37;3.60;;;3.03;;
24557;SDS011;12726;49.148;8.582;2023-04-24T16:23:23;5.97;;;3.65;;
24557;SDS011;12726;49.148;8.582;2023-04-24T16:26:09;4.30;;;3.58;;
24557;SDS011;12726;49.148;8.582;2023-04-24T16:28:55;3.95;;;3.15;;
24557;SDS011;12726;49.148;8.582;2023-04-24T16:31:40;6.45;;;3.00;;
24557;SDS011;12726;49.148;8.582;2023-04-24T16:34:25;5.15;;;2.85;;
24557;SDS011;12726;49.148;8.582;2023-04-24T16:37:12;6.22;;;2.92;;
24557;SDS011;12726;49.148;8.582;2023-04-24T16:39:57;4.35;;;3.53;;
24557;SDS011;12726;49.148;8.582;2023-04-24T16:42:43;7.43;;;3.25;;